Point Vicente — WDB9763 — position and weather

sailwx.info

Track history (hours):
 
Tides and Currents Weather Stations Pressure Air Temp Water Temp Dewpoint Dewpoint Depression Visibility Wind Speed Wind Dir Waves Ship Positions

Point Vicente

Owner: Foss Maritime Company, Seattle, WA. More information available from US FCC via Universal Licensing System and Coast Guard Vessel Documentation Center.

Last reported at 2015-Aug-28 14:32 UTC. Time now 2015-Aug-28 14:51 UTC.
Position N 37°54' W 122°22'.

Length 32 m; draft 4.3 m.

Type: Tug. MMSI: 366982330.

Date/timePositionNaut miles runAvg speedWind from/ knotsBaromVisibWave heightAir tempDewpointWater temp
2015-Aug-28 14:32N 37°54' W 122°22'0 0.0
2015-Aug-28 13:32N 37°54' W 122°22'0 0.0
2015-Aug-28 12:32N 37°54' W 122°22'0 0.0
2015-Aug-28 11:32N 37°54' W 122°22'0 0.0
2015-Aug-28 10:32N 37°54' W 122°22'0 0.0
2015-Aug-28 09:32N 37°54' W 122°22'0 0.0
2015-Aug-28 08:32N 37°54' W 122°22'0 0.0
2015-Aug-28 07:32N 37°54' W 122°22'0 0.0
2015-Aug-28 06:32N 37°54' W 122°22'0 0.0
2015-Aug-28 05:32N 37°54' W 122°22'1 0.9
2015-Aug-28 04:33N 37°55' W 122°22'3 2.8
2015-Aug-28 03:33N 37°53' W 122°24'7 7.2
2015-Aug-28 02:33N 37°46' W 122°22'1 1.1
2015-Aug-28 01:33N 37°45' W 122°21'0 0.1
2015-Aug-28 00:33N 37°45' W 122°21'0 0.2
2015-Aug-27 23:33N 37°45' W 122°21'0 0.0
2015-Aug-27 22:33N 37°45' W 122°21'0 0.0
2015-Aug-27 21:34N 37°45' W 122°21'0 0.0
2015-Aug-27 20:33N 37°45' W 122°21'0 0.1
2015-Aug-27 19:34N 37°45' W 122°21'3 3.4
2015-Aug-27 18:33N 37°48' W 122°20'0 0.0
2015-Aug-27 17:33N 37°48' W 122°20'0 0.0
2015-Aug-27 16:33N 37°48' W 122°20'0 0.0
2015-Aug-27 15:33N 37°48' W 122°20'3 2.6
2015-Aug-27 14:33N 37°51' W 122°22'4 4.4
2015-Aug-27 13:33N 37°55' W 122°22'0 0.2
2015-Aug-27 12:31N 37°55' W 122°22'0 0.0
2015-Aug-27 11:31N 37°55' W 122°22'0 0.0
2015-Aug-27 10:31N 37°55' W 122°22'0 0.0
2015-Aug-27 09:31N 37°55' W 122°22'0 0.0
2015-Aug-27 08:34N 37°55' W 122°22'0 0.3
2015-Aug-27 07:34N 37°55' W 122°22'0 0.0
2015-Aug-27 06:33N 37°55' W 122°22'1 0.7
2015-Aug-27 05:32N 37°54' W 122°22'0 0.0
2015-Aug-27 04:32N 37°54' W 122°22'0 0.0
2015-Aug-27 03:32N 37°54' W 122°22'0 0.0
2015-Aug-27 02:32N 37°54' W 122°22'0 0.0
2015-Aug-27 01:32N 37°54' W 122°22'0 0.0
2015-Aug-27 00:32N 37°54' W 122°22'0 0.0
2015-Aug-26 23:32N 37°54' W 122°22'0 0.0
2015-Aug-26 22:32N 37°54' W 122°22'0 0.0
2015-Aug-26 21:32N 37°54' W 122°22'1 0.9
2015-Aug-26 20:33N 37°55' W 122°22'0 0.3
2015-Aug-26 19:33N 37°55' W 122°22'1 0.8
2015-Aug-26 18:34N 37°54' W 122°22'0 0.0
2015-Aug-26 17:33N 37°54' W 122°22'0 0.0
2015-Aug-26 16:33N 37°54' W 122°22'0 0.0
2015-Aug-26 15:34N 37°54' W 122°22'1 0.9
2015-Aug-26 14:33N 37°55' W 122°22'1 0.8
2015-Aug-26 13:33N 37°54' W 122°22'0 0.0
2015-Aug-26 12:33N 37°54' W 122°22'0 0.0
2015-Aug-26 11:33N 37°54' W 122°22'0 0.0
2015-Aug-26 10:33N 37°54' W 122°22'0 0.0
2015-Aug-26 09:33N 37°54' W 122°22'0 0.0
2015-Aug-26 08:33N 37°54' W 122°22'0 0.0
2015-Aug-26 07:34N 37°54' W 122°22'4 4.1
2015-Aug-26 06:33N 37°50' W 122°22'3 2.7
2015-Aug-26 05:33N 37°49' W 122°19'0 0.0
2015-Aug-26 04:31N 37°49' W 122°19'0 0.0
2015-Aug-26 03:31N 37°49' W 122°19'0 0.0
2015-Aug-26 02:31N 37°49' W 122°19'0 0.0
2015-Aug-26 01:31N 37°49' W 122°19'0 0.0
2015-Aug-26 00:31N 37°49' W 122°19'0 0.0
2015-Aug-25 23:31N 37°49' W 122°19'0 0.0
2015-Aug-25 22:33N 37°49' W 122°19'3 3.0
2015-Aug-25 21:34N 37°50' W 122°22'4 3.8
2015-Aug-25 20:34N 37°54' W 122°22'0 0.1
2015-Aug-25 19:33N 37°54' W 122°22'0 0.0
2015-Aug-25 18:33N 37°54' W 122°22'0 0.0
2015-Aug-25 17:33N 37°54' W 122°22'0 0.0
2015-Aug-25 16:33N 37°54' W 122°22'0 0.0
2015-Aug-25 15:33N 37°54' W 122°22'0 0.0
2015-Aug-25 14:33N 37°54' W 122°22'0 0.0
2015-Aug-25 13:33N 37°54' W 122°22'0 0.0
2015-Aug-25 12:33N 37°54' W 122°22'0 0.0
2015-Aug-25 11:33N 37°54' W 122°22'0 0.0
2015-Aug-25 10:33N 37°54' W 122°22'0 0.0
2015-Aug-25 09:33N 37°54' W 122°22'0 0.0
2015-Aug-25 08:33N 37°54' W 122°22'0 0.0
2015-Aug-25 07:33N 37°54' W 122°22'0 0.0
2015-Aug-25 06:33N 37°54' W 122°22'0 0.0
2015-Aug-25 05:33N 37°54' W 122°22'0 0.0
2015-Aug-25 04:33N 37°54' W 122°22'0 0.0
2015-Aug-25 03:33N 37°54' W 122°22'1 0.9
2015-Aug-25 02:33N 37°55' W 122°22'2 1.8
2015-Aug-25 01:33N 37°55' W 122°24'1 0.6
2015-Aug-25 00:33N 37°54' W 122°24'1 1.1
2015-Aug-24 23:32N 37°54' W 122°22'0 0.0
2015-Aug-24 22:32N 37°54' W 122°22'0 0.0
2015-Aug-24 21:32N 37°54' W 122°22'0 0.0
2015-Aug-24 20:32N 37°54' W 122°22'0 0.0
2015-Aug-24 19:32N 37°54' W 122°22'0 0.0
2015-Aug-24 18:32N 37°54' W 122°22'0 0.0
2015-Aug-24 17:32N 37°54' W 122°22'0 0.0
2015-Aug-24 16:32N 37°54' W 122°22'0 0.0
2015-Aug-24 15:32N 37°54' W 122°22'0 0.0
2015-Aug-24 14:32N 37°54' W 122°22'0 0.0
2015-Aug-24 13:32N 37°54' W 122°22'0 0.0
2015-Aug-24 12:32N 37°54' W 122°22'0 0.0
2015-Aug-24 11:32N 37°54' W 122°22'0 0.0
2015-Aug-24 10:32N 37°54' W 122°22'0 0.0
2015-Aug-24 09:32N 37°54' W 122°22'0 0.0
2015-Aug-24 08:32N 37°54' W 122°22'0 0.0
2015-Aug-24 07:32N 37°54' W 122°22'0 0.0
2015-Aug-24 06:32N 37°54' W 122°22'0 0.0
2015-Aug-24 05:32N 37°54' W 122°22'0 0.0
2015-Aug-24 04:29N 37°54' W 122°22'0 0.0
2015-Aug-24 03:32N 37°54' W 122°22'0 0.0
2015-Aug-24 02:32N 37°54' W 122°22'0 0.0
2015-Aug-24 01:32N 37°54' W 122°22'0 0.0
2015-Aug-24 00:32N 37°54' W 122°22'0 0.0
2015-Aug-23 23:32N 37°54' W 122°22'0 0.0
2015-Aug-23 22:32N 37°54' W 122°22'0 0.0
2015-Aug-23 21:32N 37°54' W 122°22'0 0.0
2015-Aug-23 20:32N 37°54' W 122°22'0 0.0
2015-Aug-23 19:32N 37°54' W 122°22'0 0.0
2015-Aug-23 18:32N 37°54' W 122°22'0 0.0
2015-Aug-23 17:32N 37°54' W 122°22'0 0.0
2015-Aug-23 16:29N 37°54' W 122°22'0 0.0
2015-Aug-23 15:32N 37°54' W 122°22'0 0.0
2015-Aug-23 14:32N 37°54' W 122°22'0 0.0
2015-Aug-23 13:32N 37°54' W 122°22'0 0.0
2015-Aug-23 12:32N 37°54' W 122°22'0 0.0
2015-Aug-23 11:32N 37°54' W 122°22'0 0.0
2015-Aug-23 10:32N 37°54' W 122°22'0 0.0
2015-Aug-23 09:29N 37°54' W 122°22'0 0.0
2015-Aug-23 08:32N 37°54' W 122°22'0 0.0
2015-Aug-23 07:32N 37°54' W 122°22'0 0.0
2015-Aug-23 06:32N 37°54' W 122°22'0 0.0
2015-Aug-23 05:32N 37°54' W 122°22'0 0.0
2015-Aug-23 04:32N 37°54' W 122°22'0 0.0
2015-Aug-23 03:32N 37°54' W 122°22'0 0.0
2015-Aug-23 02:32N 37°54' W 122°22'1 0.9
2015-Aug-23 01:33N 37°55' W 122°22'4 3.7
2015-Aug-23 00:33N 37°52' W 122°24'5 5.1
2015-Aug-22 23:33N 37°48' W 122°20'0 0.0
2015-Aug-22 22:32N 37°48' W 122°20'0 0.0
2015-Aug-22 21:32N 37°48' W 122°20'0 0.0
2015-Aug-22 20:32N 37°48' W 122°20'0 0.0
2015-Aug-22 19:32N 37°48' W 122°20'0 0.0
2015-Aug-22 18:32N 37°48' W 122°20'0 0.0
2015-Aug-22 17:32N 37°48' W 122°20'0 0.0
2015-Aug-22 16:33N 37°48' W 122°20'2 2.4
2015-Aug-22 15:33N 37°50' W 122°22'5 5.1
2015-Aug-22 14:33N 37°54' W 122°24'1 1.1
2015-Aug-22 13:33N 37°54' W 122°22'0 0.1
2015-Aug-22 12:31N 37°54' W 122°22'0 0.0
2015-Aug-22 11:31N 37°54' W 122°22'0 0.0
2015-Aug-22 10:31N 37°54' W 122°22'0 0.0
2015-Aug-22 09:31N 37°54' W 122°22'0 0.0
2015-Aug-22 08:31N 37°54' W 122°22'0 0.0
2015-Aug-22 07:31N 37°54' W 122°22'0 0.0
2015-Aug-22 06:31N 37°54' W 122°22'0 0.0
2015-Aug-22 05:31N 37°54' W 122°22'0 0.0
2015-Aug-22 04:31N 37°54' W 122°22'0 0.0
2015-Aug-22 03:31N 37°54' W 122°22'0 0.0
2015-Aug-22 02:31N 37°54' W 122°22'0 0.0
2015-Aug-22 01:31N 37°54' W 122°22'1 0.7
2015-Aug-22 00:34N 37°55' W 122°22'0 0.2
2015-Aug-21 23:33N 37°55' W 122°22'1 0.8
2015-Aug-21 22:33N 37°54' W 122°22'0 0.0
2015-Aug-21 21:33N 37°54' W 122°22'0 0.0
2015-Aug-21 20:33N 37°54' W 122°22'0 0.0
2015-Aug-21 19:33N 37°54' W 122°22'0 0.0
2015-Aug-21 18:33N 37°54' W 122°22'0 0.0
2015-Aug-21 17:33N 37°54' W 122°22'0 0.0
2015-Aug-21 16:33N 37°54' W 122°22'0 0.0
2015-Aug-21 15:33N 37°54' W 122°22'0 0.0
2015-Aug-21 14:33N 37°54' W 122°22'0 0.0
2015-Aug-21 13:30N 37°54' W 122°22'0 0.0
2015-Aug-21 12:33N 37°54' W 122°22'0 0.0
2015-Aug-21 11:33N 37°54' W 122°22'0 0.0
2015-Aug-21 10:33N 37°54' W 122°22'0 0.0
2015-Aug-21 09:33N 37°54' W 122°22'0 0.0
2015-Aug-21 08:33N 37°54' W 122°22'0 0.0
2015-Aug-21 07:33N 37°54' W 122°22'0 0.0
2015-Aug-21 06:33N 37°54' W 122°22'0 0.0
2015-Aug-21 05:33N 37°54' W 122°22'0 0.0
2015-Aug-21 04:33N 37°54' W 122°22'0 0.0
2015-Aug-21 03:33N 37°54' W 122°22'0 0.0
2015-Aug-21 02:33N 37°54' W 122°22'0 0.0
2015-Aug-21 01:33N 37°54' W 122°22'0 0.0
2015-Aug-21 00:33N 37°54' W 122°22'0 0.0
2015-Aug-20 23:33N 37°54' W 122°22'0 0.0
2015-Aug-20 22:33N 37°54' W 122°22'0 0.0
2015-Aug-20 21:33N 37°54' W 122°22'0 0.0
2015-Aug-20 20:33N 37°54' W 122°22'0 0.0
2015-Aug-20 19:33N 37°54' W 122°22'0 0.0
2015-Aug-20 18:33N 37°54' W 122°22'0 0.0
2015-Aug-20 17:33N 37°54' W 122°22'0 0.0
2015-Aug-20 16:33N 37°54' W 122°22'0 0.0
2015-Aug-20 15:33N 37°54' W 122°22'0 0.0
2015-Aug-20 14:33N 37°54' W 122°22'0 0.0
2015-Aug-20 13:33N 37°54' W 122°22'0 0.0
2015-Aug-20 12:33N 37°54' W 122°22'0 0.0
2015-Aug-20 11:33N 37°54' W 122°22'0 0.0
2015-Aug-20 10:33N 37°54' W 122°22'0 0.0
2015-Aug-20 09:33N 37°54' W 122°22'0 0.0
2015-Aug-20 08:30N 37°54' W 122°22'0 0.0
2015-Aug-20 07:33N 37°54' W 122°22'0 0.0
2015-Aug-20 06:33N 37°54' W 122°22'0 0.0
2015-Aug-20 05:33N 37°54' W 122°22'0 0.0
2015-Aug-20 04:33N 37°54' W 122°22'0 0.0
2015-Aug-20 03:33N 37°54' W 122°22'0 0.0
2015-Aug-20 02:33N 37°54' W 122°22'0 0.0
2015-Aug-20 01:33N 37°54' W 122°22'0 0.0
2015-Aug-20 00:33N 37°54' W 122°22'0 0.0
2015-Aug-19 23:33N 37°54' W 122°22'0 0.0
2015-Aug-19 22:33N 37°54' W 122°22'0 0.0
2015-Aug-19 21:33N 37°54' W 122°22'0 0.1
2015-Aug-19 20:34N 37°54' W 122°22'4 3.5
2015-Aug-19 19:34N 37°51' W 122°23'5 5.4
2015-Aug-19 18:33N 37°48' W 122°18'1 0.5
2015-Aug-19 17:34N 37°48' W 122°18'8 8.3
2015-Aug-19 16:33N 37°54' W 122°24'1 1.4
2015-Aug-19 15:31N 37°54' W 122°22'0 0.0
2015-Aug-19 14:31N 37°54' W 122°22'0 0.0
2015-Aug-19 13:31N 37°54' W 122°22'0 0.0
2015-Aug-19 12:31N 37°54' W 122°22'0 0.0
2015-Aug-19 11:31N 37°54' W 122°22'0 0.0
2015-Aug-19 10:31N 37°54' W 122°22'0 0.0
2015-Aug-19 09:31N 37°54' W 122°22'0 0.0
2015-Aug-19 08:31N 37°54' W 122°22'0 0.0
2015-Aug-19 07:31N 37°54' W 122°22'0 0.0
2015-Aug-19 06:31N 37°54' W 122°22'0 0.0
2015-Aug-19 05:31N 37°54' W 122°22'0 0.0
2015-Aug-19 04:31N 37°54' W 122°22'0 0.0
2015-Aug-19 03:31N 37°54' W 122°22'0 0.0
2015-Aug-19 02:31N 37°54' W 122°22'0 0.0
2015-Aug-19 01:31N 37°54' W 122°22'0 0.0
2015-Aug-19 00:28N 37°54' W 122°22'0 0.0
2015-Aug-18 23:31N 37°54' W 122°22'0 0.0
2015-Aug-18 22:31N 37°54' W 122°22'0 0.0
2015-Aug-18 21:28N 37°54' W 122°22'0 0.0
2015-Aug-18 20:31N 37°54' W 122°22'0 0.0
2015-Aug-18 19:31N 37°54' W 122°22'0 0.0
2015-Aug-18 18:31N 37°54' W 122°22'0 0.0
2015-Aug-18 17:31N 37°54' W 122°22'0 0.0
2015-Aug-18 16:31N 37°54' W 122°22'0 0.0
2015-Aug-18 15:31N 37°54' W 122°22'  
Track history (hours):
 
Tides and Currents Weather Stations Pressure Air Temp Water Temp Dewpoint Dewpoint Depression Visibility Wind Speed Wind Dir Waves Ship Positions

Point Vicente

Owner: Foss Maritime Company, Seattle, WA. More information available from US FCC via Universal Licensing System and Coast Guard Vessel Documentation Center.

Last reported at 2015-Aug-28 14:32 UTC. Time now 2015-Aug-28 14:51 UTC.
Position N 37°54' W 122°22'.

Length 32 m; draft 4.3 m.

Type: Tug. MMSI: 366982330.

Date/timePositionNaut miles runAvg speedWind from/ knotsBaromVisibWave heightAir tempDewpointWater temp
2015-Aug-28 14:32N 37°54' W 122°22'0 0.0
2015-Aug-28 13:32N 37°54' W 122°22'0 0.0
2015-Aug-28 12:32N 37°54' W 122°22'0 0.0
2015-Aug-28 11:32N 37°54' W 122°22'0 0.0
2015-Aug-28 10:32N 37°54' W 122°22'0 0.0
2015-Aug-28 09:32N 37°54' W 122°22'0 0.0
2015-Aug-28 08:32N 37°54' W 122°22'0 0.0
2015-Aug-28 07:32N 37°54' W 122°22'0 0.0
2015-Aug-28 06:32N 37°54' W 122°22'0 0.0
2015-Aug-28 05:32N 37°54' W 122°22'1 0.9
2015-Aug-28 04:33N 37°55' W 122°22'3 2.8
2015-Aug-28 03:33N 37°53' W 122°24'7 7.2
2015-Aug-28 02:33N 37°46' W 122°22'1 1.1
2015-Aug-28 01:33N 37°45' W 122°21'0 0.1
2015-Aug-28 00:33N 37°45' W 122°21'0 0.2
2015-Aug-27 23:33N 37°45' W 122°21'0 0.0
2015-Aug-27 22:33N 37°45' W 122°21'0 0.0
2015-Aug-27 21:34N 37°45' W 122°21'0 0.0
2015-Aug-27 20:33N 37°45' W 122°21'0 0.1
2015-Aug-27 19:34N 37°45' W 122°21'3 3.4
2015-Aug-27 18:33N 37°48' W 122°20'0 0.0
2015-Aug-27 17:33N 37°48' W 122°20'0 0.0
2015-Aug-27 16:33N 37°48' W 122°20'0 0.0
2015-Aug-27 15:33N 37°48' W 122°20'3 2.6
2015-Aug-27 14:33N 37°51' W 122°22'4 4.4
2015-Aug-27 13:33N 37°55' W 122°22'0 0.2
2015-Aug-27 12:31N 37°55' W 122°22'0 0.0
2015-Aug-27 11:31N 37°55' W 122°22'0 0.0
2015-Aug-27 10:31N 37°55' W 122°22'0 0.0
2015-Aug-27 09:31N 37°55' W 122°22'0 0.0
2015-Aug-27 08:34N 37°55' W 122°22'0 0.3
2015-Aug-27 07:34N 37°55' W 122°22'0 0.0
2015-Aug-27 06:33N 37°55' W 122°22'1 0.7
2015-Aug-27 05:32N 37°54' W 122°22'0 0.0
2015-Aug-27 04:32N 37°54' W 122°22'0 0.0
2015-Aug-27 03:32N 37°54' W 122°22'0 0.0
2015-Aug-27 02:32N 37°54' W 122°22'0 0.0
2015-Aug-27 01:32N 37°54' W 122°22'0 0.0
2015-Aug-27 00:32N 37°54' W 122°22'0 0.0
2015-Aug-26 23:32N 37°54' W 122°22'0 0.0
2015-Aug-26 22:32N 37°54' W 122°22'0 0.0
2015-Aug-26 21:32N 37°54' W 122°22'1 0.9
2015-Aug-26 20:33N 37°55' W 122°22'0 0.3
2015-Aug-26 19:33N 37°55' W 122°22'1 0.8
2015-Aug-26 18:34N 37°54' W 122°22'0 0.0
2015-Aug-26 17:33N 37°54' W 122°22'0 0.0
2015-Aug-26 16:33N 37°54' W 122°22'0 0.0
2015-Aug-26 15:34N 37°54' W 122°22'1 0.9
2015-Aug-26 14:33N 37°55' W 122°22'1 0.8
2015-Aug-26 13:33N 37°54' W 122°22'0 0.0
2015-Aug-26 12:33N 37°54' W 122°22'0 0.0
2015-Aug-26 11:33N 37°54' W 122°22'0 0.0
2015-Aug-26 10:33N 37°54' W 122°22'0 0.0
2015-Aug-26 09:33N 37°54' W 122°22'0 0.0
2015-Aug-26 08:33N 37°54' W 122°22'0 0.0
2015-Aug-26 07:34N 37°54' W 122°22'4 4.1
2015-Aug-26 06:33N 37°50' W 122°22'3 2.7
2015-Aug-26 05:33N 37°49' W 122°19'0 0.0
2015-Aug-26 04:31N 37°49' W 122°19'0 0.0
2015-Aug-26 03:31N 37°49' W 122°19'0 0.0
2015-Aug-26 02:31N 37°49' W 122°19'0 0.0
2015-Aug-26 01:31N 37°49' W 122°19'0 0.0
2015-Aug-26 00:31N 37°49' W 122°19'0 0.0
2015-Aug-25 23:31N 37°49' W 122°19'0 0.0
2015-Aug-25 22:33N 37°49' W 122°19'3 3.0
2015-Aug-25 21:34N 37°50' W 122°22'4 3.8
2015-Aug-25 20:34N 37°54' W 122°22'0 0.1
2015-Aug-25 19:33N 37°54' W 122°22'0 0.0
2015-Aug-25 18:33N 37°54' W 122°22'0 0.0
2015-Aug-25 17:33N 37°54' W 122°22'0 0.0
2015-Aug-25 16:33N 37°54' W 122°22'0 0.0
2015-Aug-25 15:33N 37°54' W 122°22'0 0.0
2015-Aug-25 14:33N 37°54' W 122°22'0 0.0
2015-Aug-25 13:33N 37°54' W 122°22'0 0.0
2015-Aug-25 12:33N 37°54' W 122°22'0 0.0
2015-Aug-25 11:33N 37°54' W 122°22'0 0.0
2015-Aug-25 10:33N 37°54' W 122°22'0 0.0
2015-Aug-25 09:33N 37°54' W 122°22'0 0.0
2015-Aug-25 08:33N 37°54' W 122°22'0 0.0
2015-Aug-25 07:33N 37°54' W 122°22'0 0.0
2015-Aug-25 06:33N 37°54' W 122°22'0 0.0
2015-Aug-25 05:33N 37°54' W 122°22'0 0.0
2015-Aug-25 04:33N 37°54' W 122°22'0 0.0
2015-Aug-25 03:33N 37°54' W 122°22'1 0.9
2015-Aug-25 02:33N 37°55' W 122°22'2 1.8
2015-Aug-25 01:33N 37°55' W 122°24'1 0.6
2015-Aug-25 00:33N 37°54' W 122°24'1 1.1
2015-Aug-24 23:32N 37°54' W 122°22'0 0.0
2015-Aug-24 22:32N 37°54' W 122°22'0 0.0
2015-Aug-24 21:32N 37°54' W 122°22'0 0.0
2015-Aug-24 20:32N 37°54' W 122°22'0 0.0
2015-Aug-24 19:32N 37°54' W 122°22'0 0.0
2015-Aug-24 18:32N 37°54' W 122°22'0 0.0
2015-Aug-24 17:32N 37°54' W 122°22'0 0.0
2015-Aug-24 16:32N 37°54' W 122°22'0 0.0
2015-Aug-24 15:32N 37°54' W 122°22'0 0.0
2015-Aug-24 14:32N 37°54' W 122°22'0 0.0
2015-Aug-24 13:32N 37°54' W 122°22'0 0.0
2015-Aug-24 12:32N 37°54' W 122°22'0 0.0
2015-Aug-24 11:32N 37°54' W 122°22'0 0.0
2015-Aug-24 10:32N 37°54' W 122°22'0 0.0
2015-Aug-24 09:32N 37°54' W 122°22'0 0.0
2015-Aug-24 08:32N 37°54' W 122°22'0 0.0
2015-Aug-24 07:32N 37°54' W 122°22'0 0.0
2015-Aug-24 06:32N 37°54' W 122°22'0 0.0
2015-Aug-24 05:32N 37°54' W 122°22'0 0.0
2015-Aug-24 04:29N 37°54' W 122°22'0 0.0
2015-Aug-24 03:32N 37°54' W 122°22'0 0.0
2015-Aug-24 02:32N 37°54' W 122°22'0 0.0
2015-Aug-24 01:32N 37°54' W 122°22'0 0.0
2015-Aug-24 00:32N 37°54' W 122°22'0 0.0
2015-Aug-23 23:32N 37°54' W 122°22'0 0.0
2015-Aug-23 22:32N 37°54' W 122°22'0 0.0
2015-Aug-23 21:32N 37°54' W 122°22'0 0.0
2015-Aug-23 20:32N 37°54' W 122°22'0 0.0
2015-Aug-23 19:32N 37°54' W 122°22'0 0.0
2015-Aug-23 18:32N 37°54' W 122°22'0 0.0
2015-Aug-23 17:32N 37°54' W 122°22'0 0.0
2015-Aug-23 16:29N 37°54' W 122°22'0 0.0
2015-Aug-23 15:32N 37°54' W 122°22'0 0.0
2015-Aug-23 14:32N 37°54' W 122°22'0 0.0
2015-Aug-23 13:32N 37°54' W 122°22'0 0.0
2015-Aug-23 12:32N 37°54' W 122°22'0 0.0
2015-Aug-23 11:32N 37°54' W 122°22'0 0.0
2015-Aug-23 10:32N 37°54' W 122°22'0 0.0
2015-Aug-23 09:29N 37°54' W 122°22'0 0.0
2015-Aug-23 08:32N 37°54' W 122°22'0 0.0
2015-Aug-23 07:32N 37°54' W 122°22'0 0.0
2015-Aug-23 06:32N 37°54' W 122°22'0 0.0
2015-Aug-23 05:32N 37°54' W 122°22'0 0.0
2015-Aug-23 04:32N 37°54' W 122°22'0 0.0
2015-Aug-23 03:32N 37°54' W 122°22'0 0.0
2015-Aug-23 02:32N 37°54' W 122°22'1 0.9
2015-Aug-23 01:33N 37°55' W 122°22'4 3.7
2015-Aug-23 00:33N 37°52' W 122°24'5 5.1
2015-Aug-22 23:33N 37°48' W 122°20'0 0.0
2015-Aug-22 22:32N 37°48' W 122°20'0 0.0
2015-Aug-22 21:32N 37°48' W 122°20'0 0.0
2015-Aug-22 20:32N 37°48' W 122°20'0 0.0
2015-Aug-22 19:32N 37°48' W 122°20'0 0.0
2015-Aug-22 18:32N 37°48' W 122°20'0 0.0
2015-Aug-22 17:32N 37°48' W 122°20'0 0.0
2015-Aug-22 16:33N 37°48' W 122°20'2 2.4
2015-Aug-22 15:33N 37°50' W 122°22'5 5.1
2015-Aug-22 14:33N 37°54' W 122°24'1 1.1
2015-Aug-22 13:33N 37°54' W 122°22'0 0.1
2015-Aug-22 12:31N 37°54' W 122°22'0 0.0
2015-Aug-22 11:31N 37°54' W 122°22'0 0.0
2015-Aug-22 10:31N 37°54' W 122°22'0 0.0
2015-Aug-22 09:31N 37°54' W 122°22'0 0.0
2015-Aug-22 08:31N 37°54' W 122°22'0 0.0
2015-Aug-22 07:31N 37°54' W 122°22'0 0.0
2015-Aug-22 06:31N 37°54' W 122°22'0 0.0
2015-Aug-22 05:31N 37°54' W 122°22'0 0.0
2015-Aug-22 04:31N 37°54' W 122°22'0 0.0
2015-Aug-22 03:31N 37°54' W 122°22'0 0.0
2015-Aug-22 02:31N 37°54' W 122°22'0 0.0
2015-Aug-22 01:31N 37°54' W 122°22'1 0.7
2015-Aug-22 00:34N 37°55' W 122°22'0 0.2
2015-Aug-21 23:33N 37°55' W 122°22'1 0.8
2015-Aug-21 22:33N 37°54' W 122°22'0 0.0
2015-Aug-21 21:33N 37°54' W 122°22'0 0.0
2015-Aug-21 20:33N 37°54' W 122°22'0 0.0
2015-Aug-21 19:33N 37°54' W 122°22'0 0.0
2015-Aug-21 18:33N 37°54' W 122°22'0 0.0
2015-Aug-21 17:33N 37°54' W 122°22'0 0.0
2015-Aug-21 16:33N 37°54' W 122°22'0 0.0
2015-Aug-21 15:33N 37°54' W 122°22'0 0.0
2015-Aug-21 14:33N 37°54' W 122°22'0 0.0
2015-Aug-21 13:30N 37°54' W 122°22'0 0.0
2015-Aug-21 12:33N 37°54' W 122°22'0 0.0
2015-Aug-21 11:33N 37°54' W 122°22'0 0.0
2015-Aug-21 10:33N 37°54' W 122°22'0 0.0
2015-Aug-21 09:33N 37°54' W 122°22'0 0.0
2015-Aug-21 08:33N 37°54' W 122°22'0 0.0
2015-Aug-21 07:33N 37°54' W 122°22'0 0.0
2015-Aug-21 06:33N 37°54' W 122°22'0 0.0
2015-Aug-21 05:33N 37°54' W 122°22'0 0.0
2015-Aug-21 04:33N 37°54' W 122°22'0 0.0
2015-Aug-21 03:33N 37°54' W 122°22'0 0.0
2015-Aug-21 02:33N 37°54' W 122°22'0 0.0
2015-Aug-21 01:33N 37°54' W 122°22'0 0.0
2015-Aug-21 00:33N 37°54' W 122°22'0 0.0
2015-Aug-20 23:33N 37°54' W 122°22'0 0.0
2015-Aug-20 22:33N 37°54' W 122°22'0 0.0
2015-Aug-20 21:33N 37°54' W 122°22'0 0.0
2015-Aug-20 20:33N 37°54' W 122°22'0 0.0
2015-Aug-20 19:33N 37°54' W 122°22'0 0.0
2015-Aug-20 18:33N 37°54' W 122°22'0 0.0
2015-Aug-20 17:33N 37°54' W 122°22'0 0.0
2015-Aug-20 16:33N 37°54' W 122°22'0 0.0
2015-Aug-20 15:33N 37°54' W 122°22'0 0.0
2015-Aug-20 14:33N 37°54' W 122°22'0 0.0
2015-Aug-20 13:33N 37°54' W 122°22'0 0.0
2015-Aug-20 12:33N 37°54' W 122°22'0 0.0
2015-Aug-20 11:33N 37°54' W 122°22'0 0.0
2015-Aug-20 10:33N 37°54' W 122°22'0 0.0
2015-Aug-20 09:33N 37°54' W 122°22'0 0.0
2015-Aug-20 08:30N 37°54' W 122°22'0 0.0
2015-Aug-20 07:33N 37°54' W 122°22'0 0.0
2015-Aug-20 06:33N 37°54' W 122°22'0 0.0
2015-Aug-20 05:33N 37°54' W 122°22'0 0.0
2015-Aug-20 04:33N 37°54' W 122°22'0 0.0
2015-Aug-20 03:33N 37°54' W 122°22'0 0.0
2015-Aug-20 02:33N 37°54' W 122°22'0 0.0
2015-Aug-20 01:33N 37°54' W 122°22'0 0.0
2015-Aug-20 00:33N 37°54' W 122°22'0 0.0
2015-Aug-19 23:33N 37°54' W 122°22'0 0.0
2015-Aug-19 22:33N 37°54' W 122°22'0 0.0
2015-Aug-19 21:33N 37°54' W 122°22'0 0.1
2015-Aug-19 20:34N 37°54' W 122°22'4 3.5
2015-Aug-19 19:34N 37°51' W 122°23'5 5.4
2015-Aug-19 18:33N 37°48' W 122°18'1 0.5
2015-Aug-19 17:34N 37°48' W 122°18'8 8.3
2015-Aug-19 16:33N 37°54' W 122°24'1 1.4
2015-Aug-19 15:31N 37°54' W 122°22'0 0.0
2015-Aug-19 14:31N 37°54' W 122°22'0 0.0
2015-Aug-19 13:31N 37°54' W 122°22'0 0.0
2015-Aug-19 12:31N 37°54' W 122°22'0 0.0
2015-Aug-19 11:31N 37°54' W 122°22'0 0.0
2015-Aug-19 10:31N 37°54' W 122°22'0 0.0
2015-Aug-19 09:31N 37°54' W 122°22'0 0.0
2015-Aug-19 08:31N 37°54' W 122°22'0 0.0
2015-Aug-19 07:31N 37°54' W 122°22'0 0.0
2015-Aug-19 06:31N 37°54' W 122°22'0 0.0
2015-Aug-19 05:31N 37°54' W 122°22'0 0.0
2015-Aug-19 04:31N 37°54' W 122°22'0 0.0
2015-Aug-19 03:31N 37°54' W 122°22'0 0.0
2015-Aug-19 02:31N 37°54' W 122°22'0 0.0
2015-Aug-19 01:31N 37°54' W 122°22'0 0.0
2015-Aug-19 00:28N 37°54' W 122°22'0 0.0
2015-Aug-18 23:31N 37°54' W 122°22'0 0.0
2015-Aug-18 22:31N 37°54' W 122°22'0 0.0
2015-Aug-18 21:28N 37°54' W 122°22'0 0.0
2015-Aug-18 20:31N 37°54' W 122°22'0 0.0
2015-Aug-18 19:31N 37°54' W 122°22'0 0.0
2015-Aug-18 18:31N 37°54' W 122°22'0 0.0
2015-Aug-18 17:31N 37°54' W 122°22'0 0.0
2015-Aug-18 16:31N 37°54' W 122°22'0 0.0
2015-Aug-18 15:31N 37°54' W 122°22'  

Dump ship's entire track history